Time;durP1;ratioP1;P1;durP2;ratioP2;P2;SDS_P1;SDS_P2;PMS_P1;PMS_P2;Temp;Humidity;BMP_temperature;BMP_pressure;BME280_temperature;BME280_humidity;BME280_pressure;Samples;Min_cycle;Max_cycle;Signal;HPM_P1;HPM_P2
2021/10/01 00:01:44;;;;;;;254.43;243.97;;;12.70;99.90;;;;;;4368749;32;20511;-65
2021/10/01 00:04:18;;;;;;;267.20;256.27;;;12.70;99.90;;;;;;4375481;32;20176;-64
2021/10/01 00:06:49;;;;;;;243.17;233.27;;;12.70;99.90;;;;;;4367824;32;20156;-65
2021/10/01 00:09:22;;;;;;;237.77;227.90;;;12.70;99.90;;;;;;4372129;32;20157;-63
2021/10/01 00:11:52;;;;;;;244.60;234.33;;;12.80;99.90;;;;;;4360755;32;20221;-64
2021/10/01 00:14:25;;;;;;;235.10;225.10;;;12.80;99.90;;;;;;4367333;32;20179;-65
2021/10/01 00:16:54;;;;;;;258.60;248.03;;;12.80;99.90;;;;;;4370681;32;20175;-63
2021/10/01 00:19:28;;;;;;;252.93;242.67;;;12.80;99.90;;;;;;4368362;32;20570;-65
2021/10/01 00:22:00;;;;;;;247.70;237.70;;;12.80;99.90;;;;;;4375027;32;20161;-64
2021/10/01 00:24:43;;;;;;;261.87;250.97;;;12.80;99.90;;;;;;4370549;32;20187;-65
2021/10/01 00:27:28;;;;;;;257.57;246.97;;;12.80;99.90;;;;;;4373322;32;20506;-64
2021/10/01 00:30:00;;;;;;;277.80;266.77;;;12.70;99.90;;;;;;4365536;32;20161;-64
2021/10/01 00:32:48;;;;;;;266.47;255.43;;;12.70;99.90;;;;;;4367904;32;20176;-65
2021/10/01 00:35:21;;;;;;;238.63;228.87;;;12.70;99.90;;;;;;4372826;32;20215;-64
2021/10/01 00:37:50;;;;;;;264.87;254.07;;;12.70;99.90;;;;;;4374747;32;20171;-64
2021/10/01 00:40:21;;;;;;;278.13;266.73;;;12.70;99.90;;;;;;4363573;32;20187;-64
2021/10/01 00:42:48;;;;;;;283.47;272.00;;;12.70;99.90;;;;;;4360453;33;20212;-63
2021/10/01 00:45:18;;;;;;;259.97;249.17;;;12.60;99.90;;;;;;4372421;32;20176;-64
2021/10/01 00:47:45;;;;;;;257.57;246.73;;;12.70;99.90;;;;;;4375447;32;20206;-64
2021/10/01 00:50:12;;;;;;;268.23;257.23;;;12.70;99.90;;;;;;4371210;32;20179;-65
2021/10/01 00:52:58;;;;;;;269.73;258.27;;;12.70;99.90;;;;;;4371716;32;20165;-65
2021/10/01 00:55:43;;;;;;;270.07;258.90;;;12.70;99.90;;;;;;4370369;32;20651;-64
2021/10/01 00:58:22;;;;;;;261.80;250.87;;;12.70;99.90;;;;;;4377052;32;20217;-64
2021/10/01 01:01:08;;;;;;;255.67;245.13;;;12.80;99.90;;;;;;4374998;32;20184;-64
2021/10/01 01:03:40;;;;;;;263.77;252.43;;;12.70;99.90;;;;;;4364928;32;20192;-63
2021/10/01 01:06:17;;;;;;;245.23;235.00;;;12.80;99.90;;;;;;4362856;32;20161;-65
2021/10/01 01:08:55;;;;;;;252.33;241.90;;;12.80;99.90;;;;;;4363336;32;20195;-65
2021/10/01 01:11:38;;;;;;;251.17;240.93;;;12.80;99.90;;;;;;4373623;32;20173;-64
2021/10/01 01:14:17;;;;;;;255.27;244.50;;;12.80;99.90;;;;;;4363675;32;20204;-65
2021/10/01 01:16:54;;;;;;;254.03;243.57;;;12.90;99.90;;;;;;4363836;32;20168;-65
2021/10/01 01:19:46;;;;;;;250.27;239.80;;;12.80;99.90;;;;;;4369254;32;20164;-64
2021/10/01 01:22:29;;;;;;;256.43;245.77;;;12.80;99.90;;;;;;4365709;32;20161;-64
2021/10/01 01:25:31;;;;;;;254.37;243.77;;;12.80;99.90;;;;;;4376852;32;20187;-66
2021/10/01 01:28:18;;;;;;;249.47;239.27;;;12.80;99.90;;;;;;4363437;32;20576;-64
2021/10/01 01:31:03;;;;;;;275.43;263.97;;;12.80;99.90;;;;;;4368633;32;20178;-65
2021/10/01 01:33:35;;;;;;;262.23;251.43;;;12.60;99.90;;;;;;4371995;32;20226;-64
2021/10/01 01:36:05;;;;;;;290.03;278.00;;;12.50;99.90;;;;;;4368003;32;20176;-65
2021/10/01 01:38:48;;;;;;;287.47;275.00;;;12.40;99.90;;;;;;4375775;32;20180;-63
2021/10/01 01:41:23;;;;;;;281.40;269.63;;;12.30;99.90;;;;;;4376997;32;20265;-65
2021/10/01 01:43:55;;;;;;;313.57;300.23;;;12.20;99.90;;;;;;4374586;32;20160;-65
2021/10/01 01:46:30;;;;;;;308.20;295.30;;;12.20;99.90;;;;;;4375741;32;20165;-63
2021/10/01 01:49:03;;;;;;;307.60;294.03;;;12.10;99.90;;;;;;4376226;32;20156;-63
2021/10/01 01:51:32;;;;;;;335.77;321.73;;;12.20;99.90;;;;;;4372654;32;20212;-64
2021/10/01 01:54:01;;;;;;;322.57;309.00;;;12.20;99.90;;;;;;4377109;32;20183;-63
2021/10/01 01:56:43;;;;;;;299.70;287.37;;;12.30;99.90;;;;;;4365116;32;20180;-65
2021/10/01 01:59:10;;;;;;;289.93;277.80;;;12.40;99.90;;;;;;4363126;32;20156;-64
2021/10/01 02:01:45;;;;;;;290.30;278.20;;;12.40;99.90;;;;;;4362423;32;20183;-64
2021/10/01 02:04:22;;;;;;;281.30;269.67;;;12.60;99.90;;;;;;4373896;32;20168;-64
2021/10/01 02:06:50;;;;;;;286.43;274.67;;;12.70;99.90;;;;;;4377547;32;20152;-64
2021/10/01 02:09:31;;;;;;;277.03;265.40;;;12.60;99.90;;;;;;4365064;32;20141;-64
2021/10/01 02:12:01;;;;;;;271.83;260.43;;;12.70;99.90;;;;;;4361092;32;20203;-63
2021/10/01 02:14:32;;;;;;;279.10;267.57;;;12.70;99.90;;;;;;4370868;32;20490;-63
2021/10/01 02:17:01;;;;;;;280.07;268.17;;;12.70;99.90;;;;;;4376328;32;20168;-64
2021/10/01 02:19:46;;;;;;;272.03;260.80;;;12.70;99.90;;;;;;4378318;32;20175;-64
2021/10/01 02:22:27;;;;;;;265.27;254.33;;;12.80;99.90;;;;;;4376920;32;20190;-63
2021/10/01 02:25:15;;;;;;;246.20;235.73;;;12.70;99.90;;;;;;4376656;32;20243;-64
2021/10/01 02:27:54;;;;;;;261.73;250.60;;;12.80;99.90;;;;;;4371042;32;20168;-63
2021/10/01 02:30:21;;;;;;;260.50;249.87;;;12.80;99.90;;;;;;4368023;32;20160;-63
2021/10/01 02:32:57;;;;;;;254.53;243.73;;;12.80;99.90;;;;;;4368083;32;20214;-63
2021/10/01 02:35:38;;;;;;;271.70;260.67;;;12.80;99.90;;;;;;4370609;32;20178;-65
2021/10/01 02:38:08;;;;;;;248.60;238.40;;;12.80;99.90;;;;;;4369223;32;20600;-65
2021/10/01 02:40:40;;;;;;;255.50;244.37;;;12.80;99.90;;;;;;4377132;32;20157;-65
2021/10/01 02:43:09;;;;;;;273.67;262.27;;;12.90;99.90;;;;;;4377511;32;20171;-64
2021/10/01 02:49:31;;;;;;;229.90;220.40;;;12.90;99.90;;;;;;4330745;33;20192;-64
2021/10/01 02:52:11;;;;;;;243.23;233.47;;;12.90;99.90;;;;;;4332052;33;20157;-64
2021/10/01 02:54:53;;;;;;;244.73;234.73;;;12.90;99.90;;;;;;4331323;33;20165;-63
2021/10/01 02:57:28;;;;;;;266.57;255.47;;;12.80;99.90;;;;;;4330329;33;20162;-64
2021/10/01 03:00:03;;;;;;;254.20;243.67;;;12.70;99.90;;;;;;4330387;33;20141;-64
2021/10/01 03:02:33;;;;;;;250.10;239.73;;;12.60;99.90;;;;;;4329824;33;20582;-65
2021/10/01 03:05:05;;;;;;;252.90;242.67;;;12.50;99.90;;;;;;4331188;33;20169;-64
2021/10/01 03:07:50;;;;;;;256.97;246.40;;;12.40;99.90;;;;;;4330041;33;20502;-65
2021/10/01 03:10:20;;;;;;;260.07;249.47;;;12.30;99.90;;;;;;4341551;33;20188;-64
2021/10/01 03:15:36;;;;;;;260.93;250.00;;;12.20;99.90;;;;;;4315951;33;20637;-65
2021/10/01 03:18:18;;;;;;;264.80;253.87;;;12.20;99.90;;;;;;4315834;33;20191;-64
2021/10/01 03:20:52;;;;;;;280.60;269.33;;;12.10;99.90;;;;;;4314874;33;20231;-64
2021/10/01 03:23:25;;;;;;;269.13;258.17;;;12.10;99.90;;;;;;4314601;33;20699;-64
2021/10/01 03:26:00;;;;;;;258.63;248.17;;;12.00;99.90;;;;;;4338791;33;20179;-65
2021/10/01 03:28:30;;;;;;;275.13;263.77;;;12.10;99.90;;;;;;4359174;32;20189;-64
2021/10/01 03:31:02;;;;;;;264.37;253.33;;;12.10;99.90;;;;;;4359542;32;20183;-66
2021/10/01 03:33:35;;;;;;;263.90;252.83;;;12.00;99.90;;;;;;4358312;33;20227;-62
2021/10/01 03:36:11;;;;;;;260.90;250.07;;;12.00;99.90;;;;;;4358571;33;20156;-66
2021/10/01 03:38:40;;;;;;;267.60;256.47;;;12.00;99.90;;;;;;4358783;33;20284;-66
2021/10/01 03:41:17;;;;;;;265.40;254.17;;;12.00;99.90;;;;;;4359202;32;20201;-63
2021/10/01 03:43:45;;;;;;;270.50;259.50;;;12.00;99.90;;;;;;4358074;32;20216;-64
2021/10/01 03:46:15;;;;;;;277.10;265.67;;;11.90;99.90;;;;;;4367029;32;20527;-63
2021/10/01 03:48:45;;;;;;;270.23;259.03;;;11.90;99.90;;;;;;4376118;32;20179;-62
2021/10/01 03:51:16;;;;;;;272.93;261.77;;;11.90;99.90;;;;;;4376242;32;20160;-63
2021/10/01 03:53:44;;;;;;;263.60;252.70;;;11.90;99.90;;;;;;4374655;32;20160;-64
2021/10/01 03:56:16;;;;;;;278.63;266.97;;;11.90;99.90;;;;;;4375284;32;20239;-64
2021/10/01 03:58:49;;;;;;;272.77;261.47;;;11.90;99.90;;;;;;4375548;32;20596;-64
2021/10/01 04:01:17;;;;;;;272.70;261.50;;;11.90;99.90;;;;;;4375421;32;20196;-64
2021/10/01 04:03:44;;;;;;;281.70;269.67;;;11.80;99.90;;;;;;4375751;32;20172;-64
2021/10/01 04:06:17;;;;;;;280.13;268.67;;;11.80;99.90;;;;;;4376078;32;20194;-64
2021/10/01 04:09:00;;;;;;;272.70;261.47;;;11.80;99.90;;;;;;4375598;32;20175;-65
2021/10/01 04:11:39;;;;;;;264.30;253.60;;;11.80;99.90;;;;;;4375612;32;20170;-63
2021/10/01 04:14:19;;;;;;;244.17;234.07;;;11.80;99.90;;;;;;4375610;32;20301;-64
2021/10/01 04:16:48;;;;;;;268.03;257.10;;;11.80;99.90;;;;;;4374547;32;20194;-62
2021/10/01 04:19:21;;;;;;;267.77;256.93;;;11.90;99.90;;;;;;4375043;32;20172;-62
2021/10/01 04:21:54;;;;;;;256.70;246.30;;;11.80;99.90;;;;;;4375199;32;20573;-63
2021/10/01 04:24:25;;;;;;;260.20;249.40;;;11.80;99.90;;;;;;4376715;32;20187;-63
2021/10/01 04:27:10;;;;;;;308.40;295.70;;;11.80;99.90;;;;;;4375228;32;20156;-63
2021/10/01 04:29:41;;;;;;;273.70;262.57;;;11.80;99.90;;;;;;4375868;32;20165;-63
2021/10/01 04:32:08;;;;;;;283.97;272.33;;;11.80;99.90;;;;;;4374247;32;20156;-64
2021/10/01 04:34:45;;;;;;;293.07;280.80;;;11.80;99.90;;;;;;4375599;32;20164;-64
2021/10/01 04:37:17;;;;;;;290.77;279.03;;;11.80;99.90;;;;;;4374793;32;20158;-63
2021/10/01 04:39:45;;;;;;;295.00;282.80;;;11.80;99.90;;;;;;4371032;32;20174;-63
2021/10/01 04:42:16;;;;;;;285.57;273.57;;;11.90;99.90;;;;;;4374986;32;20160;-63
2021/10/01 04:44:44;;;;;;;265.97;254.80;;;12.00;99.90;;;;;;4374733;32;20218;-66
2021/10/01 04:47:11;;;;;;;276.20;264.60;;;12.10;99.90;;;;;;4374718;32;20172;-63
2021/10/01 04:49:51;;;;;;;288.00;276.00;;;12.20;99.90;;;;;;4375417;32;20172;-64
2021/10/01 04:52:27;;;;;;;261.87;251.20;;;12.20;99.90;;;;;;4374682;32;20646;-63
2021/10/01 04:54:56;;;;;;;263.60;252.77;;;12.20;99.90;;;;;;4363398;32;20156;-63
2021/10/01 04:57:34;;;;;;;257.17;246.77;;;12.20;99.90;;;;;;4376083;32;20205;-62
2021/10/01 05:00:06;;;;;;;273.07;261.87;;;12.10;99.90;;;;;;4375273;32;20164;-63
2021/10/01 05:02:43;;;;;;;260.03;249.30;;;12.00;99.90;;;;;;4362279;32;20204;-65
2021/10/01 05:05:24;;;;;;;246.47;236.13;;;12.00;99.90;;;;;;4359812;32;20176;-64
2021/10/01 05:07:54;;;;;;;248.20;238.17;;;12.00;99.90;;;;;;4360709;32;20606;-63
2021/10/01 05:10:26;;;;;;;265.73;255.00;;;12.00;99.90;;;;;;4361672;32;20504;-62
2021/10/01 05:12:59;;;;;;;260.70;250.13;;;12.00;99.90;;;;;;4371386;32;20172;-63
2021/10/01 05:15:30;;;;;;;265.97;255.37;;;12.00;99.90;;;;;;4373656;32;20179;-64
2021/10/01 05:18:14;;;;;;;262.13;251.40;;;12.00;99.90;;;;;;4371117;32;20221;-64
2021/10/01 05:20:41;;;;;;;246.87;236.60;;;12.10;99.90;;;;;;4375711;32;20617;-65
2021/10/01 05:23:14;;;;;;;240.50;230.70;;;12.00;99.90;;;;;;4373778;32;20163;-63
2021/10/01 05:25:42;;;;;;;266.40;255.43;;;12.00;99.90;;;;;;4369576;32;20514;-64
2021/10/01 05:28:19;;;;;;;257.43;246.87;;;11.90;99.90;;;;;;4370283;32;20588;-64
2021/10/01 05:30:54;;;;;;;267.37;256.40;;;11.90;99.90;;;;;;4371540;32;20512;-63
2021/10/01 05:33:30;;;;;;;244.73;234.63;;;11.90;99.90;;;;;;4360448;32;20183;-64
2021/10/01 05:36:09;;;;;;;290.90;279.20;;;11.80;99.90;;;;;;4373429;32;20195;-64
2021/10/01 05:38:54;;;;;;;283.67;272.07;;;11.80;99.90;;;;;;4362973;32;20164;-65
2021/10/01 05:41:24;;;;;;;262.50;251.70;;;11.70;99.90;;;;;;4368213;32;20175;-63
2021/10/01 05:43:56;;;;;;;285.73;274.30;;;11.70;99.90;;;;;;4374759;32;20261;-64
2021/10/01 05:46:25;;;;;;;262.87;251.63;;;11.80;99.90;;;;;;4376086;32;20595;-63
2021/10/01 05:48:58;;;;;;;259.83;249.03;;;11.80;99.90;;;;;;4372016;32;20163;-64
2021/10/01 05:51:46;;;;;;;267.00;256.13;;;11.80;99.90;;;;;;4361470;32;20165;-64
2021/10/01 05:54:21;;;;;;;254.87;244.50;;;11.90;99.90;;;;;;4366256;32;20176;-63
2021/10/01 05:57:01;;;;;;;271.23;260.20;;;11.80;99.90;;;;;;4364117;32;20215;-64
2021/10/01 05:59:31;;;;;;;304.93;292.10;;;11.80;99.90;;;;;;4369051;32;20235;-64
2021/10/01 06:02:03;;;;;;;258.83;248.10;;;11.70;99.90;;;;;;4379318;32;20223;-64
2021/10/01 06:07:55;;;;;;;263.33;252.53;;;11.70;99.90;;;;;;4375949;32;20183;-63
2021/10/01 06:10:26;;;;;;;256.67;245.83;;;11.70;99.90;;;;;;4376393;32;20160;-65
2021/10/01 06:12:57;;;;;;;262.43;251.67;;;11.80;99.90;;;;;;4374804;32;20267;-64
2021/10/01 06:15:26;;;;;;;269.90;258.83;;;11.70;99.90;;;;;;4375730;32;20172;-64
2021/10/01 06:18:04;;;;;;;;;;;;;;;;;;;;;
2021/10/01 06:20:40;;;;;;;271.93;260.83;;;11.80;99.90;;;;;;4373540;32;20146;-64
2021/10/01 06:23:07;;;;;;;267.70;256.83;;;11.90;99.90;;;;;;4374118;32;20279;-63
2021/10/01 06:25:36;;;;;;;281.13;269.53;;;12.00;99.90;;;;;;4376003;32;20160;-64
2021/10/01 06:28:07;;;;;;;267.10;255.97;;;12.00;99.90;;;;;;4375376;32;20891;-65
2021/10/01 06:30:38;;;;;;;277.40;265.53;;;12.00;99.90;;;;;;4373488;32;20147;-64
2021/10/01 06:33:10;;;;;;;255.37;245.13;;;12.20;99.90;;;;;;4373769;32;20167;-64
2021/10/01 06:35:40;;;;;;;286.87;275.23;;;12.20;99.90;;;;;;4376311;32;20199;-64
2021/10/01 06:38:11;;;;;;;252.00;241.33;;;12.30;99.90;;;;;;4373505;32;20186;-63
2021/10/01 06:40:42;;;;;;;261.83;251.13;;;12.30;99.90;;;;;;4372150;32;20239;-64
2021/10/01 06:43:16;;;;;;;270.93;259.67;;;12.30;99.90;;;;;;4374265;32;20251;-63
2021/10/01 06:45:58;;;;;;;260.33;249.47;;;12.40;99.90;;;;;;4375867;32;20184;-64
2021/10/01 06:48:43;;;;;;;251.53;240.73;;;12.50;99.90;;;;;;4376161;32;20500;-62
2021/10/01 07:36:30;;;;;;;218.77;209.83;;;14.30;99.90;;;;;;4376086;32;20266;-64
2021/10/01 08:21:09;;;;;;;;;;;;;;;;;;;;;
2021/10/01 08:23:59;;;;;;;269.53;258.77;;;15.00;99.90;;;;;;4333791;32;20182;-63
2021/10/01 08:26:27;;;;;;;283.60;272.13;;;14.90;99.90;;;;;;4372328;32;20184;-64
2021/10/01 08:28:57;;;;;;;265.93;255.27;;;15.00;99.90;;;;;;4372910;32;20533;-63
2021/10/01 08:31:31;;;;;;;282.53;271.07;;;15.10;99.90;;;;;;4218430;32;4927861;-63
2021/10/01 08:34:03;;;;;;;276.40;265.10;;;15.20;99.90;;;;;;4357542;32;20215;-64
2021/10/01 08:36:35;;;;;;;212.60;203.97;;;15.30;99.90;;;;;;4355404;32;20227;-63
2021/10/01 08:39:05;;;;;;;238.27;228.37;;;15.10;99.90;;;;;;4350486;32;20175;-63
2021/10/01 08:41:50;;;;;;;258.83;248.00;;;15.00;99.90;;;;;;4356884;32;20175;-63
2021/10/01 08:44:31;;;;;;;257.63;247.13;;;15.00;99.90;;;;;;4350345;33;20167;-65
2021/10/01 08:53:48;;;;;;;267.30;256.40;;;15.10;99.90;;;;;;4361343;33;20463;-63
2021/10/01 08:56:18;;;;;;;311.53;298.73;;;15.10;99.90;;;;;;4358814;32;20148;-62
2021/10/01 08:58:45;;;;;;;300.50;287.90;;;15.20;99.90;;;;;;4359984;33;20140;-62
2021/10/01 09:01:12;;;;;;;287.37;275.37;;;15.40;99.90;;;;;;4358678;33;20141;-64
2021/10/01 09:03:41;;;;;;;306.60;293.80;;;15.50;99.90;;;;;;4359446;33;20188;-64
2021/10/01 09:06:08;;;;;;;282.57;270.73;;;15.60;99.90;;;;;;4361039;32;20467;-63
2021/10/01 09:08:49;;;;;;;304.43;291.70;;;15.50;99.90;;;;;;4359170;32;20145;-65
2021/10/01 09:11:16;;;;;;;284.83;273.07;;;15.50;99.90;;;;;;4356039;32;20144;-62
2021/10/01 09:13:44;;;;;;;286.30;274.63;;;15.70;99.90;;;;;;4359930;32;20149;-63
2021/10/01 09:16:14;;;;;;;302.47;290.13;;;15.70;99.90;;;;;;4358922;33;20149;-63
2021/10/01 09:18:43;;;;;;;309.70;296.70;;;15.80;99.90;;;;;;4359200;32;20169;-64
2021/10/01 09:21:19;;;;;;;305.40;292.80;;;15.90;99.90;;;;;;4361911;32;20138;-63
2021/10/01 09:23:58;;;;;;;293.97;281.83;;;15.90;99.90;;;;;;4360326;33;20573;-63
2021/10/01 09:26:33;;;;;;;319.43;306.23;;;15.90;99.90;;;;;;4362557;32;20137;-64
2021/10/01 09:29:07;;;;;;;319.27;305.90;;;16.10;99.90;;;;;;4363386;32;20147;-64
2021/10/01 09:31:46;;;;;;;329.57;316.00;;;16.20;99.90;;;;;;4364024;32;20152;-64
2021/10/01 09:34:31;;;;;;;298.87;286.57;;;16.30;99.90;;;;;;4363141;33;20149;-63
2021/10/01 09:37:04;;;;;;;306.57;293.63;;;16.30;99.90;;;;;;4364477;32;20596;-64
2021/10/01 09:39:42;;;;;;;310.27;297.37;;;16.30;99.90;;;;;;4364366;32;20461;-64
2021/10/01 09:42:23;;;;;;;311.43;298.63;;;16.20;99.90;;;;;;4363087;32;20175;-64
2021/10/01 09:45:01;;;;;;;310.37;297.17;;;16.30;99.90;;;;;;4361903;33;20634;-64
2021/10/01 09:47:37;;;;;;;307.13;294.37;;;16.40;99.90;;;;;;4364245;32;20145;-63
2021/10/01 09:50:15;;;;;;;334.00;320.13;;;16.40;99.90;;;;;;4362958;33;20191;-64
2021/10/01 09:52:49;;;;;;;307.10;294.03;;;16.40;99.90;;;;;;4364477;32;20605;-64
2021/10/01 09:55:17;;;;;;;311.97;298.93;;;16.10;99.90;;;;;;4362790;33;20506;-63
2021/10/01 09:58:07;;;;;;;348.97;334.63;;;16.00;99.90;;;;;;4363546;32;20149;-63
2021/10/01 10:00:40;;;;;;;336.47;322.10;;;15.80;99.90;;;;;;4364118;32;20141;-64
2021/10/01 10:03:07;;;;;;;371.57;355.90;;;15.70;99.90;;;;;;4362462;33;20155;-63
2021/10/01 10:05:53;;;;;;;354.33;339.03;;;15.70;99.90;;;;;;4363815;32;20553;-65
2021/10/01 10:08:23;;;;;;;350.13;335.43;;;15.80;99.90;;;;;;4362571;32;20138;-63
2021/10/01 10:10:56;;;;;;;371.07;355.03;;;15.70;99.90;;;;;;4362838;32;20483;-62
2021/10/01 10:13:39;;;;;;;376.57;360.27;;;15.60;99.90;;;;;;4364025;32;20168;-62
2021/10/01 10:16:13;;;;;;;376.00;360.10;;;15.40;99.90;;;;;;4363297;32;20155;-64
2021/10/01 10:18:43;;;;;;;384.70;368.13;;;15.30;99.90;;;;;;4362370;32;20177;-64
2021/10/01 10:21:11;;;;;;;400.43;382.87;;;15.20;99.90;;;;;;4364344;32;20247;-62
2021/10/01 10:23:41;;;;;;;463.67;441.73;;;15.10;99.90;;;;;;4362359;33;20159;-65
2021/10/01 10:26:12;;;;;;;515.80;490.97;;;14.60;99.90;;;;;;4362599;32;20153;-64
2021/10/01 10:28:47;;;;;;;516.97;492.33;;;14.20;99.90;;;;;;4362874;32;20642;-63
2021/10/01 10:31:22;;;;;;;536.33;510.43;;;14.00;99.90;;;;;;4362748;32;20202;-64
2021/10/01 10:34:02;;;;;;;560.43;531.77;;;13.80;99.90;;;;;;4362109;32;20151;-63
2021/10/01 10:36:49;;;;;;;571.40;542.47;;;13.60;99.90;;;;;;4362412;32;20164;-64
2021/10/01 10:39:36;;;;;;;558.20;530.53;;;13.40;99.90;;;;;;4362565;32;20535;-63
2021/10/01 10:42:12;;;;;;;585.43;555.43;;;13.40;99.90;;;;;;4362235;32;20157;-63
2021/10/01 10:45:07;;;;;;;587.47;557.53;;;13.40;99.90;;;;;;4362152;32;20157;-65
2021/10/01 10:48:01;;;;;;;569.50;540.37;;;13.60;99.90;;;;;;4362124;32;20156;-63
2021/10/01 10:50:51;;;;;;;559.43;531.57;;;13.70;99.90;;;;;;4362477;32;20168;-64
2021/10/01 10:53:32;;;;;;;568.40;540.10;;;13.70;99.90;;;;;;4362046;32;20156;-63
2021/10/01 10:56:26;;;;;;;615.97;583.40;;;13.70;99.90;;;;;;4362001;32;20161;-64
2021/10/01 10:58:56;;;;;;;611.70;579.77;;;13.90;99.90;;;;;;4329887;33;20230;-65
2021/10/01 11:01:34;;;;;;;598.73;567.37;;;14.00;99.90;;;;;;4330281;33;20214;-65
2021/10/01 11:04:42;;;;;;;612.90;580.97;;;14.20;99.90;;;;;;4330107;33;20657;-65
2021/10/01 11:07:33;;;;;;;586.43;556.13;;;14.00;99.90;;;;;;4330167;33;20215;-64
2021/10/01 11:10:34;;;;;;;589.07;558.93;;;14.10;99.90;;;;;;4330115;33;20173;-65
2021/10/01 11:13:25;;;;;;;573.20;544.17;;;14.20;99.90;;;;;;4331447;33;20536;-65
2021/10/01 11:16:29;;;;;;;570.13;541.23;;;14.50;99.90;;;;;;4325574;33;20223;-65
2021/10/01 11:19:10;;;;;;;560.70;532.37;;;14.80;99.90;;;;;;4330071;33;20271;-64
2021/10/01 11:21:43;;;;;;;552.13;524.13;;;15.10;99.90;;;;;;4318483;33;20255;-63
2021/10/01 11:24:15;;;;;;;562.23;533.63;;;15.30;99.90;;;;;;4330179;33;20609;-64
2021/10/01 11:26:49;;;;;;;552.50;525.40;;;15.50;99.90;;;;;;4331786;33;20170;-65
2021/10/01 11:29:33;;;;;;;526.93;501.47;;;15.70;99.90;;;;;;4330673;33;20192;-61
2021/10/01 11:32:04;;;;;;;523.33;497.67;;;15.90;99.90;;;;;;4329678;33;20243;-65
2021/10/01 11:34:40;;;;;;;495.07;471.47;;;15.90;99.90;;;;;;4333153;33;20217;-61
2021/10/01 11:37:24;;;;;;;500.63;477.00;;;16.00;99.90;;;;;;4363161;32;20171;-62
2021/10/01 11:39:58;;;;;;;482.97;460.57;;;16.00;99.90;;;;;;4361109;32;20153;-64
2021/10/01 11:42:27;;;;;;;493.00;469.53;;;16.00;99.90;;;;;;4361429;33;20193;-65
2021/10/01 11:44:58;;;;;;;525.10;499.73;;;16.10;99.90;;;;;;4361295;32;20173;-63
2021/10/01 11:47:41;;;;;;;496.07;472.70;;;16.30;99.90;;;;;;4361221;32;20608;-62
2021/10/01 11:50:18;;;;;;;476.57;454.40;;;16.50;99.90;;;;;;4360428;32;20493;-62
2021/10/01 11:52:48;;;;;;;458.00;437.67;;;16.50;99.90;;;;;;4361703;32;20152;-62
2021/10/01 11:55:19;;;;;;;436.83;417.00;;;16.50;99.90;;;;;;4362134;32;20149;-61
2021/10/01 11:57:49;;;;;;;444.47;423.93;;;16.60;99.90;;;;;;4362718;32;20168;-63
2021/10/01 12:00:24;;;;;;;457.80;436.97;;;16.80;99.90;;;;;;4361564;32;20171;-63
2021/10/01 12:02:53;;;;;;;440.10;420.43;;;16.90;99.90;;;;;;4361557;32;20168;-64
2021/10/01 12:05:31;;;;;;;444.80;424.17;;;16.90;99.90;;;;;;4360695;33;20215;-63
2021/10/01 12:08:03;;;;;;;429.40;410.53;;;16.90;99.90;;;;;;4360518;33;20152;-64
2021/10/01 12:10:37;;;;;;;429.20;410.03;;;17.00;99.90;;;;;;4359966;32;20662;-64
2021/10/01 12:13:17;;;;;;;441.60;421.70;;;17.10;99.90;;;;;;4360452;32;20178;-62
2021/10/01 12:15:48;;;;;;;448.87;429.23;;;17.10;99.90;;;;;;4359985;32;20160;-65
2021/10/01 12:18:31;;;;;;;416.43;398.27;;;17.30;99.90;;;;;;4360068;33;20161;-64
2021/10/01 12:23:58;;;;;;;414.63;396.47;;;17.30;99.90;;;;;;4359423;32;20200;-63
2021/10/01 12:26:31;;;;;;;414.20;395.63;;;17.20;99.90;;;;;;4360169;33;20208;-62
2021/10/01 12:29:11;;;;;;;436.63;417.07;;;17.00;99.90;;;;;;4360930;32;20165;-63
2021/10/01 12:31:48;;;;;;;423.30;404.87;;;16.80;99.90;;;;;;4360431;32;20626;-62
2021/10/01 12:34:21;;;;;;;416.63;397.67;;;16.70;99.90;;;;;;4360773;32;20210;-64
2021/10/01 12:36:52;;;;;;;423.90;404.90;;;16.60;99.90;;;;;;4352958;32;20588;-64
2021/10/01 12:39:32;;;;;;;425.17;406.30;;;16.50;99.90;;;;;;4355769;32;20187;-63
2021/10/01 12:42:01;;;;;;;448.97;428.73;;;16.40;99.90;;;;;;4362098;32;20214;-62
2021/10/01 12:44:55;;;;;;;472.20;450.83;;;16.30;99.90;;;;;;4362606;32;20167;-65
2021/10/01 12:47:28;;;;;;;453.30;432.73;;;16.20;99.90;;;;;;4360589;32;20634;-64
2021/10/01 12:50:06;;;;;;;458.97;437.97;;;16.20;99.90;;;;;;4361249;32;20183;-65
2021/10/01 12:52:52;;;;;;;486.93;464.57;;;16.20;99.90;;;;;;4362209;32;20164;-64
2021/10/01 12:55:30;;;;;;;454.97;434.23;;;16.20;99.90;;;;;;4360524;32;20182;-65
2021/10/01 12:57:58;;;;;;;434.77;414.67;;;16.30;99.90;;;;;;4360099;32;20145;-64
2021/10/01 13:00:29;;;;;;;449.00;428.67;;;16.30;99.90;;;;;;4358412;32;20156;-64
2021/10/01 13:03:01;;;;;;;452.40;432.10;;;16.30;99.90;;;;;;4360564;32;20234;-63
2021/10/01 13:05:36;;;;;;;475.40;453.57;;;16.30;99.90;;;;;;4362060;32;20182;-63
2021/10/01 13:08:13;;;;;;;449.87;429.73;;;16.50;99.90;;;;;;4362573;32;20212;-64
2021/10/01 13:10:49;;;;;;;495.27;471.83;;;16.60;99.90;;;;;;4364277;32;20177;-64
2021/10/01 13:13:18;;;;;;;477.70;455.20;;;16.60;99.90;;;;;;4362395;32;20157;-63
2021/10/01 13:15:46;;;;;;;489.07;466.17;;;16.50;99.90;;;;;;4360675;33;20180;-64
2021/10/01 13:18:27;;;;;;;491.60;468.00;;;16.30;99.90;;;;;;4363618;32;20293;-64
2021/10/01 13:20:57;;;;;;;523.40;497.97;;;16.10;99.90;;;;;;4361987;32;20191;-64
2021/10/01 13:23:33;;;;;;;545.30;518.97;;;16.10;99.90;;;;;;4361607;32;20204;-64
2021/10/01 13:26:09;;;;;;;503.20;479.93;;;16.00;99.90;;;;;;4361043;32;20213;-64
2021/10/01 13:28:36;;;;;;;517.63;493.30;;;15.80;99.90;;;;;;4362571;32;20161;-64
2021/10/01 13:31:03;;;;;;;524.60;499.77;;;15.60;99.90;;;;;;4361823;32;20179;-63
2021/10/01 13:33:32;;;;;;;523.83;499.00;;;15.60;99.90;;;;;;4361410;32;20715;-65
2021/10/01 13:35:59;;;;;;;538.50;512.13;;;15.60;99.90;;;;;;4361823;32;20149;-64
2021/10/01 13:38:31;;;;;;;542.70;515.80;;;15.60;99.90;;;;;;4362053;33;20193;-64
2021/10/01 13:41:04;;;;;;;557.80;530.00;;;15.50;99.90;;;;;;4360647;33;20157;-63
2021/10/01 13:43:32;;;;;;;547.17;519.93;;;15.40;99.90;;;;;;4358076;33;20161;-62
2021/10/01 13:46:02;;;;;;;540.77;514.63;;;15.30;99.90;;;;;;4361880;32;20160;-63
2021/10/01 13:48:30;;;;;;;553.47;526.17;;;15.30;99.90;;;;;;4362446;32;20165;-64
2021/10/01 13:50:59;;;;;;;535.43;509.23;;;15.40;99.90;;;;;;4362122;32;20520;-64
2021/10/01 13:53:29;;;;;;;556.40;528.23;;;15.50;99.90;;;;;;4361311;33;20168;-63
2021/10/01 13:55:56;;;;;;;532.80;506.63;;;15.60;99.90;;;;;;4359479;33;20164;-63
2021/10/01 13:58:25;;;;;;;569.03;540.30;;;15.80;99.90;;;;;;4360743;32;20160;-63
2021/10/01 14:00:54;;;;;;;558.30;530.20;;;15.90;99.90;;;;;;4363771;32;20222;-63
2021/10/01 14:03:21;;;;;;;551.00;523.73;;;16.00;99.90;;;;;;4358421;33;20222;-62
2021/10/01 14:05:48;;;;;;;520.07;494.87;;;16.00;99.90;;;;;;4360833;32;20160;-63
2021/10/01 14:08:18;;;;;;;500.80;476.70;;;16.10;99.90;;;;;;4363637;32;20161;-63
2021/10/01 14:10:45;;;;;;;535.30;509.23;;;16.10;99.90;;;;;;4361474;32;20153;-63
2021/10/01 14:13:13;;;;;;;526.87;501.13;;;16.10;99.90;;;;;;4362729;32;20607;-63
2021/10/01 14:15:42;;;;;;;504.33;479.67;;;16.30;99.90;;;;;;4362495;32;20214;-64
2021/10/01 14:18:11;;;;;;;519.13;493.53;;;16.40;99.90;;;;;;4362667;32;20201;-64
2021/10/01 14:20:37;;;;;;;514.23;489.03;;;16.60;99.90;;;;;;4362654;32;20195;-64
2021/10/01 14:23:06;;;;;;;512.83;488.07;;;16.70;99.90;;;;;;4360588;32;20183;-64
2021/10/01 14:25:33;;;;;;;526.80;501.53;;;16.80;99.90;;;;;;4360568;33;20164;-64
2021/10/01 14:28:01;;;;;;;508.90;484.87;;;16.70;99.90;;;;;;4361410;33;20180;-64
2021/10/01 14:30:29;;;;;;;508.97;485.17;;;16.80;99.90;;;;;;4363126;32;20173;-65
2021/10/01 14:33:00;;;;;;;514.10;489.37;;;16.70;99.90;;;;;;4361804;32;20168;-64
2021/10/01 14:35:27;;;;;;;512.63;488.17;;;16.60;99.90;;;;;;4362950;32;20164;-63